sensor_id;sensor_type;location;lat;lon;timestamp;temperature;humidity
15676;DHT22;7938;47.666;9.434;2023-06-05T04:02:50;12.50;91.20
15676;DHT22;7938;47.666;9.434;2023-06-05T04:05:17;12.60;91.60
15676;DHT22;7938;47.666;9.434;2023-06-05T04:07:44;12.60;91.40
15676;DHT22;7938;47.666;9.434;2023-06-05T04:10:11;12.70;91.60
15676;DHT22;7938;47.666;9.434;2023-06-05T04:12:38;12.70;91.20
15676;DHT22;7938;47.666;9.434;2023-06-05T04:15:06;12.80;91.40
15676;DHT22;7938;47.666;9.434;2023-06-05T04:17:34;13.00;91.20
15676;DHT22;7938;47.666;9.434;2023-06-05T04:20:06;13.10;91.50
15676;DHT22;7938;47.666;9.434;2023-06-05T04:22:36;13.20;90.70
15676;DHT22;7938;47.666;9.434;2023-06-05T04:25:03;13.20;90.90
15676;DHT22;7938;47.666;9.434;2023-06-05T04:27:30;13.30;91.00
15676;DHT22;7938;47.666;9.434;2023-06-05T04:29:57;13.40;90.80
15676;DHT22;7938;47.666;9.434;2023-06-05T04:32:24;13.40;90.40
15676;DHT22;7938;47.666;9.434;2023-06-05T04:34:51;13.50;91.00
15676;DHT22;7938;47.666;9.434;2023-06-05T04:37:19;13.50;90.80
15676;DHT22;7938;47.666;9.434;2023-06-05T04:39:46;13.50;90.60
15676;DHT22;7938;47.666;9.434;2023-06-05T04:42:13;13.50;90.20
15676;DHT22;7938;47.666;9.434;2023-06-05T04:44:40;13.60;91.00
15676;DHT22;7938;47.666;9.434;2023-06-05T04:47:07;13.70;90.60
15676;DHT22;7938;47.666;9.434;2023-06-05T04:49:34;13.80;90.20
15676;DHT22;7938;47.666;9.434;2023-06-05T04:52:01;13.80;90.00
15676;DHT22;7938;47.666;9.434;2023-06-05T04:54:29;13.70;90.40
15676;DHT22;7938;47.666;9.434;2023-06-05T04:56:56;13.80;90.30
15676;DHT22;7938;47.666;9.434;2023-06-05T04:59:23;13.80;90.20
15676;DHT22;7938;47.666;9.434;2023-06-05T05:01:51;13.70;90.00
15676;DHT22;7938;47.666;9.434;2023-06-05T05:04:18;13.70;90.20
15676;DHT22;7938;47.666;9.434;2023-06-05T05:06:45;13.60;90.60
15676;DHT22;7938;47.666;9.434;2023-06-05T05:09:13;13.60;90.60
15676;DHT22;7938;47.666;9.434;2023-06-05T05:11:41;13.60;90.40
15676;DHT22;7938;47.666;9.434;2023-06-05T05:14:08;13.70;90.70
15676;DHT22;7938;47.666;9.434;2023-06-05T05:16:35;13.70;90.50
15676;DHT22;7938;47.666;9.434;2023-06-05T05:19:02;13.70;90.40
15676;DHT22;7938;47.666;9.434;2023-06-05T05:21:29;13.60;90.50
15676;DHT22;7938;47.666;9.434;2023-06-05T05:23:56;13.60;90.70
15676;DHT22;7938;47.666;9.434;2023-06-05T05:26:22;13.60;90.70
15676;DHT22;7938;47.666;9.434;2023-06-05T05:28:51;13.70;90.70
15676;DHT22;7938;47.666;9.434;2023-06-05T05:31:18;13.80;90.60
15676;DHT22;7938;47.666;9.434;2023-06-05T05:33:45;13.80;90.70
15676;DHT22;7938;47.666;9.434;2023-06-05T05:36:11;13.80;90.80
15676;DHT22;7938;47.666;9.434;2023-06-05T05:38:40;14.00;90.80
15676;DHT22;7938;47.666;9.434;2023-06-05T05:41:07;14.30;90.50
15676;DHT22;7938;47.666;9.434;2023-06-05T05:43:34;14.30;90.90
15676;DHT22;7938;47.666;9.434;2023-06-05T05:46:02;14.40;90.70
15676;DHT22;7938;47.666;9.434;2023-06-05T05:48:30;14.40;90.60
15676;DHT22;7938;47.666;9.434;2023-06-05T05:50:57;14.40;90.50
15676;DHT22;7938;47.666;9.434;2023-06-05T05:53:24;14.40;90.90
15676;DHT22;7938;47.666;9.434;2023-06-05T05:55:51;14.40;90.90
15676;DHT22;7938;47.666;9.434;2023-06-05T05:58:17;14.60;91.00
15676;DHT22;7938;47.666;9.434;2023-06-05T06:00:45;14.80;89.90
15676;DHT22;7938;47.666;9.434;2023-06-05T06:03:13;15.00;90.70
15676;DHT22;7938;47.666;9.434;2023-06-05T06:05:40;15.00;90.70
15676;DHT22;7938;47.666;9.434;2023-06-05T06:08:07;15.10;90.40
15676;DHT22;7938;47.666;9.434;2023-06-05T06:10:34;15.30;90.00
15676;DHT22;7938;47.666;9.434;2023-06-05T06:13:01;15.30;90.30
15676;DHT22;7938;47.666;9.434;2023-06-05T06:15:29;15.40;90.00
15676;DHT22;7938;47.666;9.434;2023-06-05T06:17:57;15.60;90.10
15676;DHT22;7938;47.666;9.434;2023-06-05T06:20:26;15.70;88.10
15676;DHT22;7938;47.666;9.434;2023-06-05T06:22:54;15.70;88.80
15676;DHT22;7938;47.666;9.434;2023-06-05T06:25:21;15.80;87.40
15676;DHT22;7938;47.666;9.434;2023-06-05T06:27:51;16.00;89.40
15676;DHT22;7938;47.666;9.434;2023-06-05T06:30:19;16.10;88.20
15676;DHT22;7938;47.666;9.434;2023-06-05T06:32:46;16.20;87.60
15676;DHT22;7938;47.666;9.434;2023-06-05T06:35:13;16.30;87.40
15676;DHT22;7938;47.666;9.434;2023-06-05T06:37:42;16.40;87.70
15676;DHT22;7938;47.666;9.434;2023-06-05T06:40:11;16.40;86.90
15676;DHT22;7938;47.666;9.434;2023-06-05T06:42:39;16.40;85.90
15676;DHT22;7938;47.666;9.434;2023-06-05T06:45:07;16.50;87.60
15676;DHT22;7938;47.666;9.434;2023-06-05T06:47:34;16.60;87.40
15676;DHT22;7938;47.666;9.434;2023-06-05T06:50:01;16.60;88.90
15676;DHT22;7938;47.666;9.434;2023-06-05T06:52:28;16.80;87.50
15676;DHT22;7938;47.666;9.434;2023-06-05T06:54:56;16.90;89.00
15676;DHT22;7938;47.666;9.434;2023-06-05T06:57:23;17.00;87.50
15676;DHT22;7938;47.666;9.434;2023-06-05T06:59:50;17.00;86.90
15676;DHT22;7938;47.666;9.434;2023-06-05T07:02:20;17.00;86.80
15676;DHT22;7938;47.666;9.434;2023-06-05T07:04:47;17.00;86.90
15676;DHT22;7938;47.666;9.434;2023-06-05T07:07:15;16.90;85.60
15676;DHT22;7938;47.666;9.434;2023-06-05T07:09:43;16.70;87.50
15676;DHT22;7938;47.666;9.434;2023-06-05T07:12:13;16.80;87.70
15676;DHT22;7938;47.666;9.434;2023-06-05T07:14:40;16.80;88.80
15676;DHT22;7938;47.666;9.434;2023-06-05T07:17:07;16.80;86.20
15676;DHT22;7938;47.666;9.434;2023-06-05T07:19:35;16.60;86.00
15676;DHT22;7938;47.666;9.434;2023-06-05T07:22:03;16.50;87.80
15676;DHT22;7938;47.666;9.434;2023-06-05T07:24:31;16.60;88.90
15676;DHT22;7938;47.666;9.434;2023-06-05T07:27:00;16.60;86.90
15676;DHT22;7938;47.666;9.434;2023-06-05T07:29:29;16.70;89.40
15676;DHT22;7938;47.666;9.434;2023-06-05T07:31:57;16.70;87.70
15676;DHT22;7938;47.666;9.434;2023-06-05T07:34:25;16.80;88.50
15676;DHT22;7938;47.666;9.434;2023-06-05T07:36:53;16.90;89.00
15676;DHT22;7938;47.666;9.434;2023-06-05T07:39:21;17.10;87.30
15676;DHT22;7938;47.666;9.434;2023-06-05T07:41:48;17.50;84.90
15676;DHT22;7938;47.666;9.434;2023-06-05T07:44:17;17.60;85.50
15676;DHT22;7938;47.666;9.434;2023-06-05T07:46:47;17.70;85.40
15676;DHT22;7938;47.666;9.434;2023-06-05T07:49:14;17.90;85.20
15676;DHT22;7938;47.666;9.434;2023-06-05T07:51:41;18.20;85.60
15676;DHT22;7938;47.666;9.434;2023-06-05T07:54:10;18.30;85.90
15676;DHT22;7938;47.666;9.434;2023-06-05T07:56:38;19.00;84.80
15676;DHT22;7938;47.666;9.434;2023-06-05T07:59:06;18.50;84.00
15676;DHT22;7938;47.666;9.434;2023-06-05T08:01:35;18.50;83.60
15676;DHT22;7938;47.666;9.434;2023-06-05T08:04:04;18.70;84.30
15676;DHT22;7938;47.666;9.434;2023-06-05T08:06:32;18.90;83.80
15676;DHT22;7938;47.666;9.434;2023-06-05T08:08:59;19.10;83.30
15676;DHT22;7938;47.666;9.434;2023-06-05T08:11:27;19.10;83.10
15676;DHT22;7938;47.666;9.434;2023-06-05T08:13:55;19.20;85.00
15676;DHT22;7938;47.666;9.434;2023-06-05T08:16:22;19.30;83.80
15676;DHT22;7938;47.666;9.434;2023-06-05T08:18:49;19.30;85.80
15676;DHT22;7938;47.666;9.434;2023-06-05T08:21:17;19.50;84.50
15676;DHT22;7938;47.666;9.434;2023-06-05T08:23:44;19.70;83.50
15676;DHT22;7938;47.666;9.434;2023-06-05T08:26:11;19.80;85.80
15676;DHT22;7938;47.666;9.434;2023-06-05T08:28:39;20.00;83.60
15676;DHT22;7938;47.666;9.434;2023-06-05T08:31:06;20.00;85.10
15676;DHT22;7938;47.666;9.434;2023-06-05T08:33:33;20.20;84.20
15676;DHT22;7938;47.666;9.434;2023-06-05T08:36:01;20.20;84.10
15676;DHT22;7938;47.666;9.434;2023-06-05T08:38:29;20.20;82.90
15676;DHT22;7938;47.666;9.434;2023-06-05T08:41:00;20.20;83.70
15676;DHT22;7938;47.666;9.434;2023-06-05T08:43:28;20.30;81.90
15676;DHT22;7938;47.666;9.434;2023-06-05T08:45:56;20.30;81.10
15676;DHT22;7938;47.666;9.434;2023-06-05T08:48:24;20.10;82.30
15676;DHT22;7938;47.666;9.434;2023-06-05T08:50:52;19.90;84.70
15676;DHT22;7938;47.666;9.434;2023-06-05T08:53:20;19.70;82.90
15676;DHT22;7938;47.666;9.434;2023-06-05T08:55:54;19.80;82.80
15676;DHT22;7938;47.666;9.434;2023-06-05T08:58:21;19.80;85.90
15676;DHT22;7938;47.666;9.434;2023-06-05T09:00:49;20.00;84.00
15676;DHT22;7938;47.666;9.434;2023-06-05T09:03:16;20.00;83.50
15676;DHT22;7938;47.666;9.434;2023-06-05T09:05:46;20.00;83.70
15676;DHT22;7938;47.666;9.434;2023-06-05T09:08:13;19.90;83.20
15676;DHT22;7938;47.666;9.434;2023-06-05T09:10:40;19.60;84.70
15676;DHT22;7938;47.666;9.434;2023-06-05T09:13:09;19.60;84.90
15676;DHT22;7938;47.666;9.434;2023-06-05T09:15:36;19.70;83.70
15676;DHT22;7938;47.666;9.434;2023-06-05T09:18:08;19.70;84.40
15676;DHT22;7938;47.666;9.434;2023-06-05T09:20:36;19.60;84.30
15676;DHT22;7938;47.666;9.434;2023-06-05T09:23:06;19.60;85.70
15676;DHT22;7938;47.666;9.434;2023-06-05T09:25:48;19.70;85.90
15676;DHT22;7938;47.666;9.434;2023-06-05T09:28:17;19.50;85.10
15676;DHT22;7938;47.666;9.434;2023-06-05T09:30:57;19.50;84.80
15676;DHT22;7938;47.666;9.434;2023-06-05T09:33:25;19.60;86.20
15676;DHT22;7938;47.666;9.434;2023-06-05T09:36:03;19.50;86.00
15676;DHT22;7938;47.666;9.434;2023-06-05T09:38:30;19.80;86.00
15676;DHT22;7938;47.666;9.434;2023-06-05T09:41:15;19.70;85.80
15676;DHT22;7938;47.666;9.434;2023-06-05T09:43:45;19.70;86.70
15676;DHT22;7938;47.666;9.434;2023-06-05T09:46:15;19.70;86.40
15676;DHT22;7938;47.666;9.434;2023-06-05T09:48:43;19.70;86.80
15676;DHT22;7938;47.666;9.434;2023-06-05T09:51:19;19.70;85.60
15676;DHT22;7938;47.666;9.434;2023-06-05T09:53:48;19.80;86.00
15676;DHT22;7938;47.666;9.434;2023-06-05T09:56:16;19.90;88.90
15676;DHT22;7938;47.666;9.434;2023-06-05T09:58:46;20.10;86.70
15676;DHT22;7938;47.666;9.434;2023-06-05T10:01:16;20.10;86.60
15676;DHT22;7938;47.666;9.434;2023-06-05T10:03:47;20.30;85.00
15676;DHT22;7938;47.666;9.434;2023-06-05T10:06:16;20.40;86.00
15676;DHT22;7938;47.666;9.434;2023-06-05T10:08:49;20.50;85.60
15676;DHT22;7938;47.666;9.434;2023-06-05T10:11:17;20.60;87.20
15676;DHT22;7938;47.666;9.434;2023-06-05T10:13:47;21.00;83.90
15676;DHT22;7938;47.666;9.434;2023-06-05T10:16:16;21.20;83.60
15676;DHT22;7938;47.666;9.434;2023-06-05T10:18:46;21.70;82.30
15676;DHT22;7938;47.666;9.434;2023-06-05T10:21:14;21.50;82.70
15676;DHT22;7938;47.666;9.434;2023-06-05T10:23:43;21.50;83.40
15676;DHT22;7938;47.666;9.434;2023-06-05T10:26:23;21.50;82.90
15676;DHT22;7938;47.666;9.434;2023-06-05T10:29:02;21.40;83.60
15676;DHT22;7938;47.666;9.434;2023-06-05T10:31:40;21.60;82.30
15676;DHT22;7938;47.666;9.434;2023-06-05T10:34:27;21.90;83.40
15676;DHT22;7938;47.666;9.434;2023-06-05T10:37:11;21.90;83.10
15676;DHT22;7938;47.666;9.434;2023-06-05T10:39:47;21.40;82.40
15676;DHT22;7938;47.666;9.434;2023-06-05T10:42:22;21.70;83.30
15676;DHT22;7938;47.666;9.434;2023-06-05T10:44:52;21.60;83.20
15676;DHT22;7938;47.666;9.434;2023-06-05T10:47:50;21.70;84.50
15676;DHT22;7938;47.666;9.434;2023-06-05T10:50:28;21.50;84.70
15676;DHT22;7938;47.666;9.434;2023-06-05T10:52:57;21.60;85.70
15676;DHT22;7938;47.666;9.434;2023-06-05T10:55:26;21.70;85.10
15676;DHT22;7938;47.666;9.434;2023-06-05T10:58:09;22.00;84.70
15676;DHT22;7938;47.666;9.434;2023-06-05T11:01:17;22.20;83.20
15676;DHT22;7938;47.666;9.434;2023-06-05T11:03:58;22.20;83.20
15676;DHT22;7938;47.666;9.434;2023-06-05T11:06:26;22.10;84.20
15676;DHT22;7938;47.666;9.434;2023-06-05T11:09:10;22.40;84.30
15676;DHT22;7938;47.666;9.434;2023-06-05T11:11:57;22.50;81.20
15676;DHT22;7938;47.666;9.434;2023-06-05T11:14:42;22.50;82.00
15676;DHT22;7938;47.666;9.434;2023-06-05T11:17:31;22.50;81.80
15676;DHT22;7938;47.666;9.434;2023-06-05T11:19:59;22.90;85.60
15676;DHT22;7938;47.666;9.434;2023-06-05T11:22:26;23.40;83.30
15676;DHT22;7938;47.666;9.434;2023-06-05T11:25:24;23.50;81.60
15676;DHT22;7938;47.666;9.434;2023-06-05T11:27:53;23.50;80.00
15676;DHT22;7938;47.666;9.434;2023-06-05T11:30:22;23.50;81.90
15676;DHT22;7938;47.666;9.434;2023-06-05T11:32:51;23.70;81.00
15676;DHT22;7938;47.666;9.434;2023-06-05T11:35:25;23.60;81.50
15676;DHT22;7938;47.666;9.434;2023-06-05T11:38:07;23.70;81.50
15676;DHT22;7938;47.666;9.434;2023-06-05T11:40:35;24.10;81.70
15676;DHT22;7938;47.666;9.434;2023-06-05T11:43:03;24.10;82.70
15676;DHT22;7938;47.666;9.434;2023-06-05T11:45:31;24.50;82.70
15676;DHT22;7938;47.666;9.434;2023-06-05T11:48:06;24.00;79.60
15676;DHT22;7938;47.666;9.434;2023-06-05T11:50:33;23.70;80.90
15676;DHT22;7938;47.666;9.434;2023-06-05T11:53:07;23.70;81.30
15676;DHT22;7938;47.666;9.434;2023-06-05T11:55:34;23.90;81.40
15676;DHT22;7938;47.666;9.434;2023-06-05T11:58:23;24.40;82.10
15676;DHT22;7938;47.666;9.434;2023-06-05T12:00:51;25.10;83.40
15676;DHT22;7938;47.666;9.434;2023-06-05T12:03:21;25.20;84.00
15676;DHT22;7938;47.666;9.434;2023-06-05T12:05:49;25.20;80.00
15676;DHT22;7938;47.666;9.434;2023-06-05T12:08:22;25.60;77.10
15676;DHT22;7938;47.666;9.434;2023-06-05T12:10:50;25.70;76.30
15676;DHT22;7938;47.666;9.434;2023-06-05T12:13:17;25.80;76.50
15676;DHT22;7938;47.666;9.434;2023-06-05T12:15:56;25.60;77.40
15676;DHT22;7938;47.666;9.434;2023-06-05T12:18:32;25.60;79.50
15676;DHT22;7938;47.666;9.434;2023-06-05T12:20:59;25.10;78.30
15676;DHT22;7938;47.666;9.434;2023-06-05T12:23:28;24.30;79.30
15676;DHT22;7938;47.666;9.434;2023-06-05T12:25:59;24.60;79.70
15676;DHT22;7938;47.666;9.434;2023-06-05T12:28:27;25.00;76.70
15676;DHT22;7938;47.666;9.434;2023-06-05T12:30:54;25.20;78.00
15676;DHT22;7938;47.666;9.434;2023-06-05T12:33:21;25.80;76.60
15676;DHT22;7938;47.666;9.434;2023-06-05T12:36:04;26.20;75.80
15676;DHT22;7938;47.666;9.434;2023-06-05T12:38:36;25.80;76.10
15676;DHT22;7938;47.666;9.434;2023-06-05T12:41:03;25.70;74.60
15676;DHT22;7938;47.666;9.434;2023-06-05T12:43:31;25.20;73.50
15676;DHT22;7938;47.666;9.434;2023-06-05T12:45:58;25.00;73.40
15676;DHT22;7938;47.666;9.434;2023-06-05T12:48:25;24.70;71.90
15676;DHT22;7938;47.666;9.434;2023-06-05T12:50:52;24.70;72.10
15676;DHT22;7938;47.666;9.434;2023-06-05T12:53:21;24.50;71.40
15676;DHT22;7938;47.666;9.434;2023-06-05T12:55:48;24.50;72.60
15676;DHT22;7938;47.666;9.434;2023-06-05T12:58:15;24.70;72.90
15676;DHT22;7938;47.666;9.434;2023-06-05T13:00:42;25.70;69.80
15676;DHT22;7938;47.666;9.434;2023-06-05T13:03:09;25.90;70.90
15676;DHT22;7938;47.666;9.434;2023-06-05T13:05:38;25.90;67.80
15676;DHT22;7938;47.666;9.434;2023-06-05T13:08:05;25.60;69.00
15676;DHT22;7938;47.666;9.434;2023-06-05T13:10:33;25.80;68.20
15676;DHT22;7938;47.666;9.434;2023-06-05T13:13:00;25.80;68.70
15676;DHT22;7938;47.666;9.434;2023-06-05T13:15:26;25.50;67.00
15676;DHT22;7938;47.666;9.434;2023-06-05T13:17:53;25.20;68.40
15676;DHT22;7938;47.666;9.434;2023-06-05T13:20:20;25.50;68.90
15676;DHT22;7938;47.666;9.434;2023-06-05T13:22:47;25.70;69.10
15676;DHT22;7938;47.666;9.434;2023-06-05T13:25:14;25.80;68.60
15676;DHT22;7938;47.666;9.434;2023-06-05T13:27:43;26.30;67.80
15676;DHT22;7938;47.666;9.434;2023-06-05T13:30:10;26.90;68.30
15676;DHT22;7938;47.666;9.434;2023-06-05T13:32:37;26.50;66.00
15676;DHT22;7938;47.666;9.434;2023-06-05T13:35:05;26.10;67.40
15676;DHT22;7938;47.666;9.434;2023-06-05T13:37:33;26.20;66.20
15676;DHT22;7938;47.666;9.434;2023-06-05T13:40:00;26.70;65.90
15676;DHT22;7938;47.666;9.434;2023-06-05T13:42:30;27.10;66.20
15676;DHT22;7938;47.666;9.434;2023-06-05T13:44:58;27.50;64.60
15676;DHT22;7938;47.666;9.434;2023-06-05T13:47:25;28.00;63.90
15676;DHT22;7938;47.666;9.434;2023-06-05T13:49:52;28.60;61.30
15676;DHT22;7938;47.666;9.434;2023-06-05T13:52:20;29.20;61.90
15676;DHT22;7938;47.666;9.434;2023-06-05T13:54:47;30.30;60.80
15676;DHT22;7938;47.666;9.434;2023-06-05T13:57:14;31.40;58.50
15676;DHT22;7938;47.666;9.434;2023-06-05T13:59:42;31.80;56.80
15676;DHT22;7938;47.666;9.434;2023-06-05T14:02:11;31.30;54.00
15676;DHT22;7938;47.666;9.434;2023-06-05T14:04:38;31.10;56.00
15676;DHT22;7938;47.666;9.434;2023-06-05T14:07:05;31.30;56.10
15676;DHT22;7938;47.666;9.434;2023-06-05T14:09:32;32.10;55.30
15676;DHT22;7938;47.666;9.434;2023-06-05T14:12:01;32.70;54.90
15676;DHT22;7938;47.666;9.434;2023-06-05T14:14:29;32.40;52.90
15676;DHT22;7938;47.666;9.434;2023-06-05T14:16:56;30.40;53.70
15676;DHT22;7938;47.666;9.434;2023-06-05T14:19:24;29.00;57.00
15676;DHT22;7938;47.666;9.434;2023-06-05T14:21:51;29.50;57.00
15676;DHT22;7938;47.666;9.434;2023-06-05T14:24:18;31.40;54.40
15676;DHT22;7938;47.666;9.434;2023-06-05T14:26:45;32.10;52.40
15676;DHT22;7938;47.666;9.434;2023-06-05T14:29:12;31.30;53.80
15676;DHT22;7938;47.666;9.434;2023-06-05T14:31:39;30.60;54.90
15676;DHT22;7938;47.666;9.434;2023-06-05T14:34:06;31.00;56.90
15676;DHT22;7938;47.666;9.434;2023-06-05T14:36:36;31.80;54.00
15676;DHT22;7938;47.666;9.434;2023-06-05T14:39:03;33.00;53.80
15676;DHT22;7938;47.666;9.434;2023-06-05T14:41:30;34.10;51.60
15676;DHT22;7938;47.666;9.434;2023-06-05T14:43:57;33.90;51.20
15676;DHT22;7938;47.666;9.434;2023-06-05T14:46:24;32.70;49.30
15676;DHT22;7938;47.666;9.434;2023-06-05T14:48:51;31.80;50.70
15676;DHT22;7938;47.666;9.434;2023-06-05T14:51:18;30.50;52.90
15676;DHT22;7938;47.666;9.434;2023-06-05T14:53:47;29.60;55.30
15676;DHT22;7938;47.666;9.434;2023-06-05T14:56:14;30.60;53.80
15676;DHT22;7938;47.666;9.434;2023-06-05T14:58:41;29.10;54.00
15676;DHT22;7938;47.666;9.434;2023-06-05T15:01:08;30.30;53.10
15676;DHT22;7938;47.666;9.434;2023-06-05T15:03:36;31.90;54.20
15676;DHT22;7938;47.666;9.434;2023-06-05T15:06:04;32.70;51.30
15676;DHT22;7938;47.666;9.434;2023-06-05T15:08:31;33.50;50.70
15676;DHT22;7938;47.666;9.434;2023-06-05T15:11:00;32.80;49.20
15676;DHT22;7938;47.666;9.434;2023-06-05T15:13:26;32.90;49.90
15676;DHT22;7938;47.666;9.434;2023-06-05T15:15:54;33.30;49.30
15676;DHT22;7938;47.666;9.434;2023-06-05T15:18:24;32.90;48.10
15676;DHT22;7938;47.666;9.434;2023-06-05T15:20:51;33.80;48.40
15676;DHT22;7938;47.666;9.434;2023-06-05T15:23:19;32.90;47.50
15676;DHT22;7938;47.666;9.434;2023-06-05T15:25:46;32.90;48.20
15676;DHT22;7938;47.666;9.434;2023-06-05T15:28:15;34.00;47.30
15676;DHT22;7938;47.666;9.434;2023-06-05T15:30:43;36.00;45.50
15676;DHT22;7938;47.666;9.434;2023-06-05T15:33:13;35.70;46.90
15676;DHT22;7938;47.666;9.434;2023-06-05T15:35:40;34.30;44.00
15676;DHT22;7938;47.666;9.434;2023-06-05T15:38:10;34.30;47.00
15676;DHT22;7938;47.666;9.434;2023-06-05T15:40:37;37.10;46.30
15676;DHT22;7938;47.666;9.434;2023-06-05T15:43:05;37.20;47.00
15676;DHT22;7938;47.666;9.434;2023-06-05T15:45:34;37.80;44.30
15676;DHT22;7938;47.666;9.434;2023-06-05T15:48:02;37.30;42.10
15676;DHT22;7938;47.666;9.434;2023-06-05T15:50:29;35.60;42.80
15676;DHT22;7938;47.666;9.434;2023-06-05T15:52:56;35.60;43.10
15676;DHT22;7938;47.666;9.434;2023-06-05T15:55:23;36.70;43.70
15676;DHT22;7938;47.666;9.434;2023-06-05T15:57:50;36.60;47.50
15676;DHT22;7938;47.666;9.434;2023-06-05T16:00:18;35.40;48.90
15676;DHT22;7938;47.666;9.434;2023-06-05T16:02:47;34.10;51.10
15676;DHT22;7938;47.666;9.434;2023-06-05T16:05:14;33.00;52.60
15676;DHT22;7938;47.666;9.434;2023-06-05T16:07:41;32.90;55.40
15676;DHT22;7938;47.666;9.434;2023-06-05T16:10:09;32.90;53.50
15676;DHT22;7938;47.666;9.434;2023-06-05T16:12:36;31.70;57.40
15676;DHT22;7938;47.666;9.434;2023-06-05T16:15:04;31.60;56.60
15676;DHT22;7938;47.666;9.434;2023-06-05T16:17:31;31.00;59.00
15676;DHT22;7938;47.666;9.434;2023-06-05T16:19:59;32.10;57.40
15676;DHT22;7938;47.666;9.434;2023-06-05T16:22:26;33.30;56.20
15676;DHT22;7938;47.666;9.434;2023-06-05T16:24:53;33.10;54.70
15676;DHT22;7938;47.666;9.434;2023-06-05T16:27:20;33.50;56.20
15676;DHT22;7938;47.666;9.434;2023-06-05T16:29:47;34.60;56.70
15676;DHT22;7938;47.666;9.434;2023-06-05T16:32:14;34.40;54.30
15676;DHT22;7938;47.666;9.434;2023-06-05T16:34:41;34.20;54.60
15676;DHT22;7938;47.666;9.434;2023-06-05T16:37:09;34.40;55.10
15676;DHT22;7938;47.666;9.434;2023-06-05T16:39:36;33.90;55.00
15676;DHT22;7938;47.666;9.434;2023-06-05T16:42:04;33.50;57.00
15676;DHT22;7938;47.666;9.434;2023-06-05T16:44:31;33.20;57.00
15676;DHT22;7938;47.666;9.434;2023-06-05T16:46:58;34.10;56.60
15676;DHT22;7938;47.666;9.434;2023-06-05T16:49:25;33.90;56.70
15676;DHT22;7938;47.666;9.434;2023-06-05T16:51:52;33.10;56.10
15676;DHT22;7938;47.666;9.434;2023-06-05T16:54:21;33.30;56.30
15676;DHT22;7938;47.666;9.434;2023-06-05T16:56:49;33.60;55.80
15676;DHT22;7938;47.666;9.434;2023-06-05T16:59:17;34.40;55.00
15676;DHT22;7938;47.666;9.434;2023-06-05T17:01:43;34.60;52.90
15676;DHT22;7938;47.666;9.434;2023-06-05T17:04:11;34.20;54.40
15676;DHT22;7938;47.666;9.434;2023-06-05T17:06:38;33.80;54.20
15676;DHT22;7938;47.666;9.434;2023-06-05T17:09:05;33.40;54.20
15676;DHT22;7938;47.666;9.434;2023-06-05T17:11:34;33.60;54.70
15676;DHT22;7938;47.666;9.434;2023-06-05T17:14:00;33.60;55.00
15676;DHT22;7938;47.666;9.434;2023-06-05T17:16:29;32.50;56.00
15676;DHT22;7938;47.666;9.434;2023-06-05T17:18:56;33.60;55.70
15676;DHT22;7938;47.666;9.434;2023-06-05T17:21:23;33.50;55.70
15676;DHT22;7938;47.666;9.434;2023-06-05T17:23:50;33.10;56.70
15676;DHT22;7938;47.666;9.434;2023-06-05T17:26:17;33.20;55.10
15676;DHT22;7938;47.666;9.434;2023-06-05T17:28:45;33.10;55.30
15676;DHT22;7938;47.666;9.434;2023-06-05T17:31:12;33.60;54.50
15676;DHT22;7938;47.666;9.434;2023-06-05T17:33:39;33.70;53.90
15676;DHT22;7938;47.666;9.434;2023-06-05T17:36:06;33.80;53.60
15676;DHT22;7938;47.666;9.434;2023-06-05T17:38:33;33.50;54.60
15676;DHT22;7938;47.666;9.434;2023-06-05T17:41:00;33.80;53.80
15676;DHT22;7938;47.666;9.434;2023-06-05T17:43:27;33.60;54.40
15676;DHT22;7938;47.666;9.434;2023-06-05T17:45:55;33.30;53.50
15676;DHT22;7938;47.666;9.434;2023-06-05T17:48:22;32.60;55.20
15676;DHT22;7938;47.666;9.434;2023-06-05T17:50:50;32.80;55.70
15676;DHT22;7938;47.666;9.434;2023-06-05T17:53:16;32.40;55.20
15676;DHT22;7938;47.666;9.434;2023-06-05T17:55:46;32.40;55.60
15676;DHT22;7938;47.666;9.434;2023-06-05T17:58:14;31.50;55.20
15676;DHT22;7938;47.666;9.434;2023-06-05T18:00:42;28.90;59.50
15676;DHT22;7938;47.666;9.434;2023-06-05T18:03:10;28.70;60.40
15676;DHT22;7938;47.666;9.434;2023-06-05T18:05:37;27.90;62.30
15676;DHT22;7938;47.666;9.434;2023-06-05T18:08:04;26.90;64.50
15676;DHT22;7938;47.666;9.434;2023-06-05T18:10:31;25.50;66.90
15676;DHT22;7938;47.666;9.434;2023-06-05T18:12:58;25.40;67.50
15676;DHT22;7938;47.666;9.434;2023-06-05T18:15:25;24.90;70.90
15676;DHT22;7938;47.666;9.434;2023-06-05T18:17:52;24.50;70.20
15676;DHT22;7938;47.666;9.434;2023-06-05T18:20:20;24.20;73.40
15676;DHT22;7938;47.666;9.434;2023-06-05T18:22:47;23.80;73.20
15676;DHT22;7938;47.666;9.434;2023-06-05T18:25:14;23.60;75.20
15676;DHT22;7938;47.666;9.434;2023-06-05T18:27:41;23.40;74.40
15676;DHT22;7938;47.666;9.434;2023-06-05T18:30:09;23.30;73.30
15676;DHT22;7938;47.666;9.434;2023-06-05T18:32:36;23.00;74.40
15676;DHT22;7938;47.666;9.434;2023-06-05T18:35:03;22.90;74.70
15676;DHT22;7938;47.666;9.434;2023-06-05T18:37:33;22.80;76.60
15676;DHT22;7938;47.666;9.434;2023-06-05T18:40:00;22.60;77.40
15676;DHT22;7938;47.666;9.434;2023-06-05T18:42:27;22.50;76.60
15676;DHT22;7938;47.666;9.434;2023-06-05T18:44:53;22.40;77.30
15676;DHT22;7938;47.666;9.434;2023-06-05T18:47:21;22.10;77.30
15676;DHT22;7938;47.666;9.434;2023-06-05T18:49:48;21.90;80.40
15676;DHT22;7938;47.666;9.434;2023-06-05T18:52:16;21.70;79.70
15676;DHT22;7938;47.666;9.434;2023-06-05T18:54:44;21.50;80.50
15676;DHT22;7938;47.666;9.434;2023-06-05T18:57:11;21.40;82.00
15676;DHT22;7938;47.666;9.434;2023-06-05T18:59:38;21.20;83.40
15676;DHT22;7938;47.666;9.434;2023-06-05T19:02:05;21.10;84.90
15676;DHT22;7938;47.666;9.434;2023-06-05T19:04:32;20.90;85.00
15676;DHT22;7938;47.666;9.434;2023-06-05T19:06:59;20.80;85.90
15676;DHT22;7938;47.666;9.434;2023-06-05T19:09:26;20.70;85.50
15676;DHT22;7938;47.666;9.434;2023-06-05T19:11:56;20.50;85.70
15676;DHT22;7938;47.666;9.434;2023-06-05T19:14:24;20.40;86.70
15676;DHT22;7938;47.666;9.434;2023-06-05T19:16:51;20.30;86.50
15676;DHT22;7938;47.666;9.434;2023-06-05T19:19:18;20.20;87.00
15676;DHT22;7938;47.666;9.434;2023-06-05T19:21:45;20.00;87.80
15676;DHT22;7938;47.666;9.434;2023-06-05T19:24:12;19.90;88.60
15676;DHT22;7938;47.666;9.434;2023-06-05T19:26:40;19.70;87.50
15676;DHT22;7938;47.666;9.434;2023-06-05T19:29:11;19.70;88.20
15676;DHT22;7938;47.666;9.434;2023-06-05T19:31:38;19.60;89.40
15676;DHT22;7938;47.666;9.434;2023-06-05T19:34:05;19.60;90.00
15676;DHT22;7938;47.666;9.434;2023-06-05T19:36:32;19.50;89.50
15676;DHT22;7938;47.666;9.434;2023-06-05T19:39:01;19.50;90.10
15676;DHT22;7938;47.666;9.434;2023-06-05T19:41:29;19.30;90.00
15676;DHT22;7938;47.666;9.434;2023-06-05T19:43:55;19.30;89.70
15676;DHT22;7938;47.666;9.434;2023-06-05T19:46:24;19.20;90.20
15676;DHT22;7938;47.666;9.434;2023-06-05T19:48:51;19.00;90.20
15676;DHT22;7938;47.666;9.434;2023-06-05T19:51:18;18.80;90.50
15676;DHT22;7938;47.666;9.434;2023-06-05T19:53:45;18.70;90.60
15676;DHT22;7938;47.666;9.434;2023-06-05T19:56:12;18.60;90.70